sensor_id;sensor_type;location;lat;lon;timestamp;pressure;altitude;pressure_sealevel;temperature;humidity
71165;BME280;58859;55.132;-1.586;2023-06-10T00:01:56;101606.28;;;16.87;100.00
71165;BME280;58859;55.132;-1.586;2023-06-10T00:04:25;101613.19;;;16.72;100.00
71165;BME280;58859;55.132;-1.586;2023-06-10T00:06:51;101619.19;;;16.16;100.00
71165;BME280;58859;55.132;-1.586;2023-06-10T00:09:17;101608.44;;;16.83;100.00
71165;BME280;58859;55.132;-1.586;2023-06-10T00:11:44;101617.88;;;16.12;100.00
71165;BME280;58859;55.132;-1.586;2023-06-10T00:14:09;101608.03;;;17.27;100.00
71165;BME280;58859;55.132;-1.586;2023-06-10T00:16:35;101606.50;;;17.56;100.00
71165;BME280;58859;55.132;-1.586;2023-06-10T00:19:02;101595.44;;;15.75;100.00
71165;BME280;58859;55.132;-1.586;2023-06-10T00:21:29;101607.59;;;16.50;100.00
71165;BME280;58859;55.132;-1.586;2023-06-10T00:23:55;101604.50;;;16.87;100.00
71165;BME280;58859;55.132;-1.586;2023-06-10T00:26:23;101613.69;;;16.83;100.00
71165;BME280;58859;55.132;-1.586;2023-06-10T00:28:49;101613.28;;;16.22;100.00
71165;BME280;58859;55.132;-1.586;2023-06-10T00:31:15;101615.78;;;15.73;100.00
71165;BME280;58859;55.132;-1.586;2023-06-10T00:33:40;101616.34;;;16.01;100.00
71165;BME280;58859;55.132;-1.586;2023-06-10T00:36:05;101614.75;;;16.08;100.00
71165;BME280;58859;55.132;-1.586;2023-06-10T00:38:31;101605.94;;;15.75;100.00
71165;BME280;58859;55.132;-1.586;2023-06-10T00:40:57;101613.63;;;15.61;100.00
71165;BME280;58859;55.132;-1.586;2023-06-10T00:43:22;101609.22;;;15.69;100.00
71165;BME280;58859;55.132;-1.586;2023-06-10T00:45:48;101605.28;;;15.73;100.00
71165;BME280;58859;55.132;-1.586;2023-06-10T00:48:14;101614.47;;;15.43;100.00
71165;BME280;58859;55.132;-1.586;2023-06-10T00:50:39;101608.75;;;15.82;100.00
71165;BME280;58859;55.132;-1.586;2023-06-10T00:53:05;101605.31;;;16.88;100.00
71165;BME280;58859;55.132;-1.586;2023-06-10T00:55:32;101597.72;;;16.52;100.00
71165;BME280;58859;55.132;-1.586;2023-06-10T00:57:57;101600.00;;;16.15;100.00
71165;BME280;58859;55.132;-1.586;2023-06-10T01:00:23;101592.00;;;16.89;100.00
71165;BME280;58859;55.132;-1.586;2023-06-10T01:02:49;101599.75;;;16.66;100.00
71165;BME280;58859;55.132;-1.586;2023-06-10T01:05:17;101597.38;;;16.15;100.00
71165;BME280;58859;55.132;-1.586;2023-06-10T01:07:51;101591.00;;;16.42;100.00
71165;BME280;58859;55.132;-1.586;2023-06-10T01:10:26;101589.75;;;17.80;100.00
71165;BME280;58859;55.132;-1.586;2023-06-10T01:13:02;101587.03;;;16.14;100.00
71165;BME280;58859;55.132;-1.586;2023-06-10T01:15:31;101590.75;;;18.10;100.00
71165;BME280;58859;55.132;-1.586;2023-06-10T01:18:02;101592.75;;;17.30;100.00
71165;BME280;58859;55.132;-1.586;2023-06-10T01:20:31;101590.34;;;18.44;100.00
71165;BME280;58859;55.132;-1.586;2023-06-10T01:22:58;101581.47;;;17.60;100.00
71165;BME280;58859;55.132;-1.586;2023-06-10T01:25:25;101582.28;;;17.06;100.00
71165;BME280;58859;55.132;-1.586;2023-06-10T01:30:59;101582.13;;;16.19;100.00
71165;BME280;58859;55.132;-1.586;2023-06-10T01:33:36;101591.69;;;16.84;100.00
71165;BME280;58859;55.132;-1.586;2023-06-10T01:36:03;101596.63;;;16.79;100.00
71165;BME280;58859;55.132;-1.586;2023-06-10T01:38:32;101604.59;;;15.63;100.00
71165;BME280;58859;55.132;-1.586;2023-06-10T01:40:59;101603.19;;;15.77;100.00
71165;BME280;58859;55.132;-1.586;2023-06-10T01:43:25;101591.84;;;16.34;100.00
71165;BME280;58859;55.132;-1.586;2023-06-10T01:45:51;101590.38;;;16.80;100.00
71165;BME280;58859;55.132;-1.586;2023-06-10T01:48:16;101585.28;;;17.50;100.00
71165;BME280;58859;55.132;-1.586;2023-06-10T01:50:42;101579.03;;;17.43;100.00
71165;BME280;58859;55.132;-1.586;2023-06-10T01:53:09;101587.63;;;17.29;100.00
71165;BME280;58859;55.132;-1.586;2023-06-10T01:55:34;101582.16;;;17.54;100.00
71165;BME280;58859;55.132;-1.586;2023-06-10T01:58:00;101585.38;;;17.17;100.00
71165;BME280;58859;55.132;-1.586;2023-06-10T02:00:25;101588.59;;;16.64;100.00
71165;BME280;58859;55.132;-1.586;2023-06-10T02:02:51;101585.75;;;16.18;100.00
71165;BME280;58859;55.132;-1.586;2023-06-10T02:05:16;101583.78;;;16.36;100.00
71165;BME280;58859;55.132;-1.586;2023-06-10T02:07:41;101584.28;;;16.23;100.00
71165;BME280;58859;55.132;-1.586;2023-06-10T02:10:07;101589.53;;;16.47;100.00
71165;BME280;58859;55.132;-1.586;2023-06-10T02:12:33;101584.13;;;16.89;100.00
71165;BME280;58859;55.132;-1.586;2023-06-10T02:14:58;101574.84;;;18.26;100.00
71165;BME280;58859;55.132;-1.586;2023-06-10T02:17:23;101581.16;;;16.28;100.00
71165;BME280;58859;55.132;-1.586;2023-06-10T02:19:49;101583.56;;;15.89;100.00
71165;BME280;58859;55.132;-1.586;2023-06-10T02:22:20;101580.44;;;16.01;100.00
71165;BME280;58859;55.132;-1.586;2023-06-10T02:24:46;101583.81;;;16.68;100.00
71165;BME280;58859;55.132;-1.586;2023-06-10T02:27:12;101577.03;;;16.17;100.00
71165;BME280;58859;55.132;-1.586;2023-06-10T02:29:37;101567.91;;;17.33;100.00
71165;BME280;58859;55.132;-1.586;2023-06-10T02:32:03;101572.78;;;16.32;100.00
71165;BME280;58859;55.132;-1.586;2023-06-10T02:34:29;101574.88;;;16.13;100.00
71165;BME280;58859;55.132;-1.586;2023-06-10T02:36:54;101564.44;;;16.29;100.00
71165;BME280;58859;55.132;-1.586;2023-06-10T02:39:21;101560.22;;;17.70;100.00
71165;BME280;58859;55.132;-1.586;2023-06-10T02:41:46;101568.44;;;17.28;100.00
71165;BME280;58859;55.132;-1.586;2023-06-10T02:44:12;101561.34;;;17.29;100.00
71165;BME280;58859;55.132;-1.586;2023-06-10T02:46:37;101557.50;;;17.47;100.00
71165;BME280;58859;55.132;-1.586;2023-06-10T02:49:03;101552.28;;;16.84;100.00
71165;BME280;58859;55.132;-1.586;2023-06-10T02:51:28;101571.16;;;17.51;100.00
71165;BME280;58859;55.132;-1.586;2023-06-10T02:53:53;101558.72;;;17.75;100.00
71165;BME280;58859;55.132;-1.586;2023-06-10T02:56:19;101560.75;;;17.96;100.00
71165;BME280;58859;55.132;-1.586;2023-06-10T02:58:45;101562.31;;;18.05;100.00
71165;BME280;58859;55.132;-1.586;2023-06-10T03:01:12;101554.81;;;18.62;100.00
71165;BME280;58859;55.132;-1.586;2023-06-10T03:03:37;101559.56;;;18.21;100.00
71165;BME280;58859;55.132;-1.586;2023-06-10T03:06:06;101553.78;;;16.71;100.00
71165;BME280;58859;55.132;-1.586;2023-06-10T03:08:31;101567.44;;;17.29;100.00
71165;BME280;58859;55.132;-1.586;2023-06-10T03:10:56;101560.78;;;16.22;100.00
71165;BME280;58859;55.132;-1.586;2023-06-10T03:13:23;101556.13;;;17.67;100.00
71165;BME280;58859;55.132;-1.586;2023-06-10T03:15:49;101560.41;;;18.45;100.00
71165;BME280;58859;55.132;-1.586;2023-06-10T03:18:14;101553.03;;;17.64;100.00
71165;BME280;58859;55.132;-1.586;2023-06-10T03:20:40;101549.69;;;18.23;100.00
71165;BME280;58859;55.132;-1.586;2023-06-10T03:23:05;101553.94;;;18.47;100.00
71165;BME280;58859;55.132;-1.586;2023-06-10T03:25:34;101541.16;;;18.21;100.00
71165;BME280;58859;55.132;-1.586;2023-06-10T03:28:00;101548.00;;;17.77;100.00
71165;BME280;58859;55.132;-1.586;2023-06-10T03:30:27;101546.03;;;18.47;100.00
71165;BME280;58859;55.132;-1.586;2023-06-10T03:32:52;101550.84;;;17.98;100.00
71165;BME280;58859;55.132;-1.586;2023-06-10T03:35:18;101543.69;;;17.53;100.00
71165;BME280;58859;55.132;-1.586;2023-06-10T03:37:43;101544.72;;;16.81;100.00
71165;BME280;58859;55.132;-1.586;2023-06-10T03:40:09;101545.97;;;17.09;100.00
71165;BME280;58859;55.132;-1.586;2023-06-10T03:42:35;101538.63;;;16.89;100.00
71165;BME280;58859;55.132;-1.586;2023-06-10T03:45:01;101536.31;;;17.79;100.00
71165;BME280;58859;55.132;-1.586;2023-06-10T03:47:35;101540.31;;;17.37;100.00
71165;BME280;58859;55.132;-1.586;2023-06-10T03:50:06;101535.09;;;18.58;100.00
71165;BME280;58859;55.132;-1.586;2023-06-10T03:52:33;101531.84;;;18.85;100.00
71165;BME280;58859;55.132;-1.586;2023-06-10T03:54:59;101530.19;;;18.55;100.00
71165;BME280;58859;55.132;-1.586;2023-06-10T03:57:25;101532.53;;;18.50;100.00
71165;BME280;58859;55.132;-1.586;2023-06-10T03:59:50;101523.63;;;18.06;100.00
71165;BME280;58859;55.132;-1.586;2023-06-10T04:02:16;101530.19;;;18.32;100.00
71165;BME280;58859;55.132;-1.586;2023-06-10T04:04:41;101536.13;;;18.72;100.00
71165;BME280;58859;55.132;-1.586;2023-06-10T04:07:07;101531.09;;;18.39;100.00
71165;BME280;58859;55.132;-1.586;2023-06-10T04:09:34;101527.78;;;17.39;100.00
71165;BME280;58859;55.132;-1.586;2023-06-10T04:12:00;101531.00;;;18.56;100.00
71165;BME280;58859;55.132;-1.586;2023-06-10T04:14:26;101526.69;;;18.77;100.00
71165;BME280;58859;55.132;-1.586;2023-06-10T04:16:52;101528.22;;;18.72;100.00
71165;BME280;58859;55.132;-1.586;2023-06-10T04:19:17;101527.78;;;18.98;100.00
71165;BME280;58859;55.132;-1.586;2023-06-10T04:21:43;101530.22;;;19.14;100.00
71165;BME280;58859;55.132;-1.586;2023-06-10T04:24:08;101530.94;;;19.08;100.00
71165;BME280;58859;55.132;-1.586;2023-06-10T04:26:35;101540.69;;;18.92;100.00
71165;BME280;58859;55.132;-1.586;2023-06-10T04:29:00;101540.28;;;18.66;100.00
71165;BME280;58859;55.132;-1.586;2023-06-10T04:31:26;101533.44;;;17.28;100.00
71165;BME280;58859;55.132;-1.586;2023-06-10T04:33:51;101529.25;;;17.41;100.00
71165;BME280;58859;55.132;-1.586;2023-06-10T04:36:17;101518.44;;;18.20;100.00
71165;BME280;58859;55.132;-1.586;2023-06-10T04:38:42;101529.56;;;18.30;100.00
71165;BME280;58859;55.132;-1.586;2023-06-10T04:41:08;101521.06;;;16.81;100.00
71165;BME280;58859;55.132;-1.586;2023-06-10T04:43:33;101532.09;;;16.44;100.00
71165;BME280;58859;55.132;-1.586;2023-06-10T04:45:58;101527.78;;;17.00;100.00
71165;BME280;58859;55.132;-1.586;2023-06-10T04:48:24;101526.69;;;16.14;100.00
71165;BME280;58859;55.132;-1.586;2023-06-10T04:50:50;101525.63;;;16.95;100.00
71165;BME280;58859;55.132;-1.586;2023-06-10T04:53:16;101526.25;;;17.83;100.00
71165;BME280;58859;55.132;-1.586;2023-06-10T04:55:42;101520.16;;;18.13;100.00
71165;BME280;58859;55.132;-1.586;2023-06-10T04:58:07;101522.06;;;16.80;100.00
71165;BME280;58859;55.132;-1.586;2023-06-10T05:00:32;101520.78;;;17.23;100.00
71165;BME280;58859;55.132;-1.586;2023-06-10T05:02:58;101523.50;;;18.45;100.00
71165;BME280;58859;55.132;-1.586;2023-06-10T05:05:23;101518.91;;;18.24;100.00
71165;BME280;58859;55.132;-1.586;2023-06-10T05:07:48;101516.66;;;18.35;100.00
71165;BME280;58859;55.132;-1.586;2023-06-10T05:10:14;101510.75;;;18.33;100.00
71165;BME280;58859;55.132;-1.586;2023-06-10T05:12:40;101513.69;;;18.38;100.00
71165;BME280;58859;55.132;-1.586;2023-06-10T05:15:06;101504.00;;;17.63;100.00
71165;BME280;58859;55.132;-1.586;2023-06-10T05:17:32;101509.88;;;17.34;100.00
71165;BME280;58859;55.132;-1.586;2023-06-10T05:19:57;101512.47;;;18.04;100.00
71165;BME280;58859;55.132;-1.586;2023-06-10T05:22:22;101511.19;;;18.60;100.00
71165;BME280;58859;55.132;-1.586;2023-06-10T05:24:50;101510.31;;;18.67;100.00
71165;BME280;58859;55.132;-1.586;2023-06-10T05:27:16;101504.00;;;18.54;100.00
71165;BME280;58859;55.132;-1.586;2023-06-10T05:29:41;101497.22;;;18.36;100.00
71165;BME280;58859;55.132;-1.586;2023-06-10T05:32:07;101505.75;;;17.40;100.00
71165;BME280;58859;55.132;-1.586;2023-06-10T05:34:33;101503.03;;;18.32;100.00
71165;BME280;58859;55.132;-1.586;2023-06-10T05:36:58;101501.88;;;17.66;100.00
71165;BME280;58859;55.132;-1.586;2023-06-10T05:39:24;101505.66;;;16.30;100.00
71165;BME280;58859;55.132;-1.586;2023-06-10T05:41:49;101502.34;;;15.79;100.00
71165;BME280;58859;55.132;-1.586;2023-06-10T05:44:15;101496.69;;;17.81;100.00
71165;BME280;58859;55.132;-1.586;2023-06-10T05:46:40;101502.94;;;18.63;100.00
71165;BME280;58859;55.132;-1.586;2023-06-10T05:49:06;101501.59;;;18.07;100.00
71165;BME280;58859;55.132;-1.586;2023-06-10T05:51:31;101507.41;;;17.71;100.00
71165;BME280;58859;55.132;-1.586;2023-06-10T05:53:56;101510.94;;;18.69;100.00
71165;BME280;58859;55.132;-1.586;2023-06-10T05:56:22;101514.84;;;18.88;100.00
71165;BME280;58859;55.132;-1.586;2023-06-10T05:58:48;101513.78;;;18.08;100.00
71165;BME280;58859;55.132;-1.586;2023-06-10T06:01:13;101511.97;;;17.47;100.00
71165;BME280;58859;55.132;-1.586;2023-06-10T06:03:39;101520.66;;;18.09;100.00
71165;BME280;58859;55.132;-1.586;2023-06-10T06:06:05;101525.53;;;16.32;100.00
71165;BME280;58859;55.132;-1.586;2023-06-10T06:08:30;101512.72;;;16.21;100.00
71165;BME280;58859;55.132;-1.586;2023-06-10T06:10:56;101514.88;;;16.18;100.00
71165;BME280;58859;55.132;-1.586;2023-06-10T06:13:21;101517.72;;;17.50;100.00
71165;BME280;58859;55.132;-1.586;2023-06-10T06:15:47;101511.38;;;16.82;100.00
71165;BME280;58859;55.132;-1.586;2023-06-10T06:18:12;101518.66;;;16.31;100.00
71165;BME280;58859;55.132;-1.586;2023-06-10T06:20:37;101523.41;;;16.28;100.00
71165;BME280;58859;55.132;-1.586;2023-06-10T06:23:03;101519.41;;;17.97;100.00
71165;BME280;58859;55.132;-1.586;2023-06-10T06:25:29;101521.75;;;16.75;100.00
71165;BME280;58859;55.132;-1.586;2023-06-10T06:27:54;101523.31;;;17.47;100.00
71165;BME280;58859;55.132;-1.586;2023-06-10T06:30:19;101523.41;;;17.23;100.00
71165;BME280;58859;55.132;-1.586;2023-06-10T06:32:45;101520.66;;;18.31;100.00
71165;BME280;58859;55.132;-1.586;2023-06-10T06:35:10;101515.75;;;19.24;100.00
71165;BME280;58859;55.132;-1.586;2023-06-10T06:37:36;101523.34;;;17.78;100.00
71165;BME280;58859;55.132;-1.586;2023-06-10T06:40:02;101523.91;;;16.31;100.00
71165;BME280;58859;55.132;-1.586;2023-06-10T06:42:28;101527.16;;;16.33;100.00
71165;BME280;58859;55.132;-1.586;2023-06-10T06:44:54;101525.75;;;17.10;100.00
71165;BME280;58859;55.132;-1.586;2023-06-10T06:47:19;101527.31;;;16.88;100.00
71165;BME280;58859;55.132;-1.586;2023-06-10T06:49:48;101519.88;;;17.77;100.00
71165;BME280;58859;55.132;-1.586;2023-06-10T06:52:15;101522.84;;;17.44;100.00
71165;BME280;58859;55.132;-1.586;2023-06-10T06:54:40;101523.22;;;16.78;100.00
71165;BME280;58859;55.132;-1.586;2023-06-10T06:57:06;101528.56;;;18.09;100.00
71165;BME280;58859;55.132;-1.586;2023-06-10T06:59:32;101529.25;;;18.03;100.00
71165;BME280;58859;55.132;-1.586;2023-06-10T07:01:58;101532.41;;;17.29;100.00
71165;BME280;58859;55.132;-1.586;2023-06-10T07:04:23;101527.19;;;16.57;100.00
71165;BME280;58859;55.132;-1.586;2023-06-10T07:06:48;101535.22;;;18.19;100.00
71165;BME280;58859;55.132;-1.586;2023-06-10T07:09:14;101540.81;;;18.39;100.00
71165;BME280;58859;55.132;-1.586;2023-06-10T07:11:40;101536.94;;;19.02;100.00
71165;BME280;58859;55.132;-1.586;2023-06-10T07:14:06;101528.31;;;17.73;100.00
71165;BME280;58859;55.132;-1.586;2023-06-10T07:16:31;101540.34;;;17.20;100.00
71165;BME280;58859;55.132;-1.586;2023-06-10T07:18:57;101534.66;;;17.40;100.00
71165;BME280;58859;55.132;-1.586;2023-06-10T07:21:22;101529.44;;;17.78;100.00
71165;BME280;58859;55.132;-1.586;2023-06-10T07:23:48;101540.34;;;17.67;100.00
71165;BME280;58859;55.132;-1.586;2023-06-10T07:26:14;101543.66;;;18.15;100.00
71165;BME280;58859;55.132;-1.586;2023-06-10T07:28:40;101540.09;;;18.08;100.00
71165;BME280;58859;55.132;-1.586;2023-06-10T07:31:07;101537.78;;;19.17;100.00
71165;BME280;58859;55.132;-1.586;2023-06-10T07:33:32;101535.13;;;18.87;100.00
71165;BME280;58859;55.132;-1.586;2023-06-10T07:35:58;101531.31;;;19.34;100.00
71165;BME280;58859;55.132;-1.586;2023-06-10T07:38:24;101535.28;;;19.30;100.00
71165;BME280;58859;55.132;-1.586;2023-06-10T07:40:50;101530.41;;;19.41;100.00
71165;BME280;58859;55.132;-1.586;2023-06-10T07:43:15;101529.69;;;19.18;100.00
71165;BME280;58859;55.132;-1.586;2023-06-10T07:45:41;101534.28;;;19.60;100.00
71165;BME280;58859;55.132;-1.586;2023-06-10T07:48:06;101536.00;;;18.65;100.00
71165;BME280;58859;55.132;-1.586;2023-06-10T07:50:32;101533.00;;;19.71;100.00
71165;BME280;58859;55.132;-1.586;2023-06-10T07:52:58;101539.22;;;19.63;100.00
71165;BME280;58859;55.132;-1.586;2023-06-10T07:55:23;101545.00;;;19.73;100.00
71165;BME280;58859;55.132;-1.586;2023-06-10T07:57:51;101545.75;;;18.79;100.00
71165;BME280;58859;55.132;-1.586;2023-06-10T08:00:16;101538.94;;;19.94;100.00
71165;BME280;58859;55.132;-1.586;2023-06-10T08:02:42;101530.59;;;19.40;100.00
71165;BME280;58859;55.132;-1.586;2023-06-10T08:05:07;101539.78;;;19.80;100.00
71165;BME280;58859;55.132;-1.586;2023-06-10T08:07:33;101537.09;;;21.20;100.00
71165;BME280;58859;55.132;-1.586;2023-06-10T08:09:58;101521.72;;;21.37;100.00
71165;BME280;58859;55.132;-1.586;2023-06-10T08:12:24;101536.66;;;19.91;100.00
71165;BME280;58859;55.132;-1.586;2023-06-10T08:14:49;101529.81;;;19.96;100.00
71165;BME280;58859;55.132;-1.586;2023-06-10T08:17:15;101527.47;;;21.60;100.00
71165;BME280;58859;55.132;-1.586;2023-06-10T08:19:41;101524.63;;;21.55;100.00
71165;BME280;58859;55.132;-1.586;2023-06-10T08:22:06;101535.91;;;21.23;100.00
71165;BME280;58859;55.132;-1.586;2023-06-10T08:24:32;101524.75;;;21.34;100.00
71165;BME280;58859;55.132;-1.586;2023-06-10T08:26:57;101525.97;;;21.03;100.00
71165;BME280;58859;55.132;-1.586;2023-06-10T08:29:23;101524.94;;;21.26;100.00
71165;BME280;58859;55.132;-1.586;2023-06-10T08:31:48;101515.47;;;21.57;100.00
71165;BME280;58859;55.132;-1.586;2023-06-10T08:34:14;101520.16;;;21.14;100.00
71165;BME280;58859;55.132;-1.586;2023-06-10T08:36:40;101523.47;;;21.23;100.00
71165;BME280;58859;55.132;-1.586;2023-06-10T08:39:05;101516.63;;;22.22;100.00
71165;BME280;58859;55.132;-1.586;2023-06-10T08:41:35;101521.09;;;22.80;100.00
71165;BME280;58859;55.132;-1.586;2023-06-10T08:44:10;101516.16;;;22.97;100.00
71165;BME280;58859;55.132;-1.586;2023-06-10T08:46:38;101510.03;;;22.97;100.00
71165;BME280;58859;55.132;-1.586;2023-06-10T08:49:07;101510.50;;;22.34;100.00
71165;BME280;58859;55.132;-1.586;2023-06-10T08:51:34;101512.34;;;22.14;100.00
71165;BME280;58859;55.132;-1.586;2023-06-10T08:54:04;101511.91;;;22.76;100.00
71165;BME280;58859;55.132;-1.586;2023-06-10T08:56:33;101511.09;;;22.63;100.00
71165;BME280;58859;55.132;-1.586;2023-06-10T08:59:01;101504.78;;;21.92;100.00
71165;BME280;58859;55.132;-1.586;2023-06-10T09:01:27;101515.63;;;22.29;100.00
71165;BME280;58859;55.132;-1.586;2023-06-10T09:03:54;101520.06;;;22.22;100.00
71165;BME280;58859;55.132;-1.586;2023-06-10T09:06:20;101519.34;;;21.61;100.00
71165;BME280;58859;55.132;-1.586;2023-06-10T09:08:46;101512.56;;;21.46;100.00
71165;BME280;58859;55.132;-1.586;2023-06-10T09:11:11;101510.81;;;20.84;100.00
71165;BME280;58859;55.132;-1.586;2023-06-10T09:13:37;101509.81;;;21.80;100.00
71165;BME280;58859;55.132;-1.586;2023-06-10T09:16:02;101512.34;;;22.14;100.00
71165;BME280;58859;55.132;-1.586;2023-06-10T09:18:28;101514.41;;;22.19;100.00
71165;BME280;58859;55.132;-1.586;2023-06-10T09:20:54;101514.72;;;21.83;100.00
71165;BME280;58859;55.132;-1.586;2023-06-10T09:23:19;101514.88;;;21.62;100.00
71165;BME280;58859;55.132;-1.586;2023-06-10T09:25:44;101521.50;;;22.31;100.00
71165;BME280;58859;55.132;-1.586;2023-06-10T09:28:15;101516.47;;;21.50;100.00
71165;BME280;58859;55.132;-1.586;2023-06-10T09:30:40;101527.16;;;20.60;100.00
71165;BME280;58859;55.132;-1.586;2023-06-10T09:33:11;101527.41;;;20.23;100.00
71165;BME280;58859;55.132;-1.586;2023-06-10T09:35:45;101521.72;;;20.40;100.00
71165;BME280;58859;55.132;-1.586;2023-06-10T09:38:13;101527.38;;;20.37;100.00
71165;BME280;58859;55.132;-1.586;2023-06-10T09:40:54;101524.38;;;20.47;100.00
71165;BME280;58859;55.132;-1.586;2023-06-10T09:43:20;101516.38;;;20.96;100.00
71165;BME280;58859;55.132;-1.586;2023-06-10T09:45:51;101515.53;;;20.89;100.00
71165;BME280;58859;55.132;-1.586;2023-06-10T09:48:21;101508.47;;;22.50;100.00
71165;BME280;58859;55.132;-1.586;2023-06-10T09:50:48;101512.22;;;21.14;100.00
71165;BME280;58859;55.132;-1.586;2023-06-10T09:53:13;101507.84;;;21.35;100.00
71165;BME280;58859;55.132;-1.586;2023-06-10T09:55:39;101513.34;;;20.99;100.00
71165;BME280;58859;55.132;-1.586;2023-06-10T09:58:05;101514.16;;;22.40;100.00
71165;BME280;58859;55.132;-1.586;2023-06-10T10:00:34;101507.38;;;23.03;100.00
71165;BME280;58859;55.132;-1.586;2023-06-10T10:03:00;101502.69;;;24.19;100.00
71165;BME280;58859;55.132;-1.586;2023-06-10T10:05:27;101494.59;;;24.75;100.00
71165;BME280;58859;55.132;-1.586;2023-06-10T10:07:52;101502.75;;;24.37;100.00
71165;BME280;58859;55.132;-1.586;2023-06-10T10:10:20;101510.19;;;23.08;100.00
71165;BME280;58859;55.132;-1.586;2023-06-10T10:12:47;101504.91;;;23.59;100.00
71165;BME280;58859;55.132;-1.586;2023-06-10T10:15:15;101500.94;;;24.31;100.00
71165;BME280;58859;55.132;-1.586;2023-06-10T10:17:52;101500.69;;;24.82;100.00
71165;BME280;58859;55.132;-1.586;2023-06-10T10:20:27;101502.13;;;25.32;100.00
71165;BME280;58859;55.132;-1.586;2023-06-10T10:22:56;101493.53;;;25.78;100.00
71165;BME280;58859;55.132;-1.586;2023-06-10T10:25:31;101496.03;;;25.13;100.00
71165;BME280;58859;55.132;-1.586;2023-06-10T10:28:12;101499.13;;;24.92;100.00
71165;BME280;58859;55.132;-1.586;2023-06-10T10:30:49;101510.34;;;26.43;100.00
71165;BME280;58859;55.132;-1.586;2023-06-10T10:33:40;101504.19;;;26.31;100.00
71165;BME280;58859;55.132;-1.586;2023-06-10T10:36:06;101503.63;;;25.10;100.00
71165;BME280;58859;55.132;-1.586;2023-06-10T10:38:33;101506.75;;;24.21;100.00
71165;BME280;58859;55.132;-1.586;2023-06-10T10:41:00;101505.16;;;24.63;100.00
71165;BME280;58859;55.132;-1.586;2023-06-10T10:43:27;101507.22;;;24.61;100.00
71165;BME280;58859;55.132;-1.586;2023-06-10T10:46:08;101500.28;;;24.11;100.00
71165;BME280;58859;55.132;-1.586;2023-06-10T10:48:38;101497.19;;;24.38;100.00
71165;BME280;58859;55.132;-1.586;2023-06-10T10:51:03;101497.91;;;23.96;100.00
71165;BME280;58859;55.132;-1.586;2023-06-10T10:53:30;101503.94;;;23.78;100.00
71165;BME280;58859;55.132;-1.586;2023-06-10T10:56:13;101502.88;;;25.39;100.00
71165;BME280;58859;55.132;-1.586;2023-06-10T10:58:39;101487.00;;;26.85;100.00
71165;BME280;58859;55.132;-1.586;2023-06-10T11:01:14;101491.66;;;25.01;100.00
71165;BME280;58859;55.132;-1.586;2023-06-10T11:03:44;101495.13;;;25.01;100.00
71165;BME280;58859;55.132;-1.586;2023-06-10T11:06:14;101486.31;;;24.65;100.00
71165;BME280;58859;55.132;-1.586;2023-06-10T11:14:27;101493.84;;;24.68;100.00
71165;BME280;58859;55.132;-1.586;2023-06-10T11:16:59;101493.88;;;23.87;100.00
71165;BME280;58859;55.132;-1.586;2023-06-10T11:19:37;101489.78;;;24.65;100.00
71165;BME280;58859;55.132;-1.586;2023-06-10T11:22:16;101480.28;;;23.77;100.00
71165;BME280;58859;55.132;-1.586;2023-06-10T11:24:49;101486.72;;;25.04;100.00
71165;BME280;58859;55.132;-1.586;2023-06-10T11:27:22;101486.50;;;24.45;100.00
71165;BME280;58859;55.132;-1.586;2023-06-10T11:32:30;101493.03;;;23.62;100.00
71165;BME280;58859;55.132;-1.586;2023-06-10T11:34:59;101488.75;;;23.61;100.00
71165;BME280;58859;55.132;-1.586;2023-06-10T11:37:25;101499.16;;;23.11;100.00
71165;BME280;58859;55.132;-1.586;2023-06-10T11:39:57;101486.22;;;23.41;100.00
71165;BME280;58859;55.132;-1.586;2023-06-10T11:42:23;101479.00;;;25.14;100.00
71165;BME280;58859;55.132;-1.586;2023-06-10T11:44:52;101488.78;;;24.17;100.00
71165;BME280;58859;55.132;-1.586;2023-06-10T11:47:18;101481.84;;;23.53;100.00
71165;BME280;58859;55.132;-1.586;2023-06-10T11:49:46;101471.34;;;24.88;100.00
71165;BME280;58859;55.132;-1.586;2023-06-10T11:52:26;101476.47;;;23.66;100.00
71165;BME280;58859;55.132;-1.586;2023-06-10T11:54:54;101474.59;;;24.47;100.00
71165;BME280;58859;55.132;-1.586;2023-06-10T11:57:20;101460.88;;;24.50;100.00
71165;BME280;58859;55.132;-1.586;2023-06-10T11:59:45;101470.88;;;24.73;100.00
71165;BME280;58859;55.132;-1.586;2023-06-10T12:02:17;101462.72;;;24.50;100.00
71165;BME280;58859;55.132;-1.586;2023-06-10T12:04:44;101471.69;;;23.43;100.00
71165;BME280;58859;55.132;-1.586;2023-06-10T12:07:17;101476.66;;;23.65;100.00
71165;BME280;58859;55.132;-1.586;2023-06-10T12:09:42;101475.34;;;24.12;100.00
71165;BME280;58859;55.132;-1.586;2023-06-10T12:12:08;101478.38;;;24.83;100.00
71165;BME280;58859;55.132;-1.586;2023-06-10T12:17:42;101472.97;;;23.28;100.00
71165;BME280;58859;55.132;-1.586;2023-06-10T12:20:12;101474.28;;;23.06;100.00
71165;BME280;58859;55.132;-1.586;2023-06-10T12:22:49;101461.97;;;25.63;100.00
71165;BME280;58859;55.132;-1.586;2023-06-10T12:25:14;101471.00;;;24.17;100.00
71165;BME280;58859;55.132;-1.586;2023-06-10T12:27:50;101479.09;;;25.08;100.00
71165;BME280;58859;55.132;-1.586;2023-06-10T12:30:19;101479.59;;;23.50;100.00
71165;BME280;58859;55.132;-1.586;2023-06-10T12:32:46;101481.66;;;23.55;100.00
71165;BME280;58859;55.132;-1.586;2023-06-10T12:35:16;101473.03;;;23.59;100.00
71165;BME280;58859;55.132;-1.586;2023-06-10T12:37:53;101477.69;;;24.87;100.00
71165;BME280;58859;55.132;-1.586;2023-06-10T12:40:34;101484.75;;;25.48;100.00
71165;BME280;58859;55.132;-1.586;2023-06-10T12:43:02;101481.25;;;24.99;100.00
71165;BME280;58859;55.132;-1.586;2023-06-10T12:48:16;101473.50;;;24.37;100.00